sensor_id;sensor_type;location;lat;lon;timestamp;P1;durP1;ratioP1;P2;durP2;ratioP2
37943;SDS011;23767;42.024;23.086;2023-03-31T00:01:58;5.28;;;1.90;;
37943;SDS011;23767;42.024;23.086;2023-03-31T00:04:25;5.13;;;1.77;;
37943;SDS011;23767;42.024;23.086;2023-03-31T00:06:52;5.13;;;1.75;;
37943;SDS011;23767;42.024;23.086;2023-03-31T00:09:18;4.65;;;2.13;;
37943;SDS011;23767;42.024;23.086;2023-03-31T00:11:46;4.32;;;1.80;;
37943;SDS011;23767;42.024;23.086;2023-03-31T00:14:12;4.15;;;1.73;;
37943;SDS011;23767;42.024;23.086;2023-03-31T00:16:39;4.03;;;1.70;;
37943;SDS011;23767;42.024;23.086;2023-03-31T00:19:05;4.18;;;2.00;;
37943;SDS011;23767;42.024;23.086;2023-03-31T00:21:34;5.28;;;1.80;;
37943;SDS011;23767;42.024;23.086;2023-03-31T00:26:27;7.75;;;2.40;;
37943;SDS011;23767;42.024;23.086;2023-03-31T00:28:53;5.25;;;2.08;;
37943;SDS011;23767;42.024;23.086;2023-03-31T00:31:20;6.05;;;2.17;;
37943;SDS011;23767;42.024;23.086;2023-03-31T00:33:46;5.65;;;2.10;;
37943;SDS011;23767;42.024;23.086;2023-03-31T00:36:12;5.60;;;2.00;;
37943;SDS011;23767;42.024;23.086;2023-03-31T00:38:45;5.95;;;2.05;;
37943;SDS011;23767;42.024;23.086;2023-03-31T00:41:12;4.15;;;1.60;;
37943;SDS011;23767;42.024;23.086;2023-03-31T00:43:38;6.13;;;1.92;;
37943;SDS011;23767;42.024;23.086;2023-03-31T00:46:19;4.88;;;1.80;;
37943;SDS011;23767;42.024;23.086;2023-03-31T00:48:50;5.55;;;1.70;;
37943;SDS011;23767;42.024;23.086;2023-03-31T00:51:21;4.63;;;1.60;;
37943;SDS011;23767;42.024;23.086;2023-03-31T00:53:49;4.28;;;1.73;;
37943;SDS011;23767;42.024;23.086;2023-03-31T00:56:19;4.60;;;1.60;;
37943;SDS011;23767;42.024;23.086;2023-03-31T00:58:46;4.05;;;1.38;;
37943;SDS011;23767;42.024;23.086;2023-03-31T01:01:15;4.03;;;1.60;;
37943;SDS011;23767;42.024;23.086;2023-03-31T01:03:41;4.18;;;1.90;;
37943;SDS011;23767;42.024;23.086;2023-03-31T01:06:09;4.75;;;1.60;;
37943;SDS011;23767;42.024;23.086;2023-03-31T01:08:36;4.72;;;1.83;;
37943;SDS011;23767;42.024;23.086;2023-03-31T01:11:06;6.72;;;1.67;;
37943;SDS011;23767;42.024;23.086;2023-03-31T01:13:38;3.67;;;1.33;;
37943;SDS011;23767;42.024;23.086;2023-03-31T01:16:04;4.03;;;1.70;;
37943;SDS011;23767;42.024;23.086;2023-03-31T01:18:30;3.85;;;1.60;;
37943;SDS011;23767;42.024;23.086;2023-03-31T01:34:27;4.50;;;1.80;;
37943;SDS011;23767;42.024;23.086;2023-03-31T01:44:27;5.50;;;2.40;;
37943;SDS011;23767;42.024;23.086;2023-03-31T01:46:56;6.75;;;2.30;;
37943;SDS011;23767;42.024;23.086;2023-03-31T01:57:38;6.57;;;2.30;;
37943;SDS011;23767;42.024;23.086;2023-03-31T01:59:48;5.80;;;2.40;;
37943;SDS011;23767;42.024;23.086;2023-03-31T02:02:21;5.53;;;2.15;;
37943;SDS011;23767;42.024;23.086;2023-03-31T02:05:00;6.35;;;2.30;;
37943;SDS011;23767;42.024;23.086;2023-03-31T02:07:33;7.57;;;2.28;;
37943;SDS011;23767;42.024;23.086;2023-03-31T02:10:02;7.15;;;2.15;;
37943;SDS011;23767;42.024;23.086;2023-03-31T02:12:30;6.30;;;2.50;;
37943;SDS011;23767;42.024;23.086;2023-03-31T02:14:56;5.38;;;2.20;;
37943;SDS011;23767;42.024;23.086;2023-03-31T02:17:25;5.75;;;2.13;;
37943;SDS011;23767;42.024;23.086;2023-03-31T02:19:54;6.18;;;2.30;;
37943;SDS011;23767;42.024;23.086;2023-03-31T02:22:21;5.90;;;2.00;;
37943;SDS011;23767;42.024;23.086;2023-03-31T02:24:48;7.13;;;1.95;;
37943;SDS011;23767;42.024;23.086;2023-03-31T02:27:20;4.97;;;2.28;;
37943;SDS011;23767;42.024;23.086;2023-03-31T02:29:46;5.07;;;2.30;;
37943;SDS011;23767;42.024;23.086;2023-03-31T02:32:23;5.78;;;2.03;;
37943;SDS011;23767;42.024;23.086;2023-03-31T02:34:53;4.40;;;1.88;;
37943;SDS011;23767;42.024;23.086;2023-03-31T02:37:19;6.35;;;2.00;;
37943;SDS011;23767;42.024;23.086;2023-03-31T02:39:46;5.93;;;2.47;;
37943;SDS011;23767;42.024;23.086;2023-03-31T02:42:13;5.22;;;2.47;;
37943;SDS011;23767;42.024;23.086;2023-03-31T02:44:40;5.80;;;2.28;;
37943;SDS011;23767;42.024;23.086;2023-03-31T02:47:07;5.10;;;2.45;;
37943;SDS011;23767;42.024;23.086;2023-03-31T02:49:34;4.78;;;2.20;;
37943;SDS011;23767;42.024;23.086;2023-03-31T03:00:18;5.95;;;2.08;;
37943;SDS011;23767;42.024;23.086;2023-03-31T03:05:20;5.63;;;2.10;;
37943;SDS011;23767;42.024;23.086;2023-03-31T03:08:06;6.07;;;2.20;;
37943;SDS011;23767;42.024;23.086;2023-03-31T03:13:22;5.32;;;2.08;;
37943;SDS011;23767;42.024;23.086;2023-03-31T03:15:55;4.13;;;2.05;;
37943;SDS011;23767;42.024;23.086;2023-03-31T03:18:23;7.13;;;2.70;;
37943;SDS011;23767;42.024;23.086;2023-03-31T03:20:49;5.47;;;2.47;;
37943;SDS011;23767;42.024;23.086;2023-03-31T03:23:16;4.28;;;2.05;;
37943;SDS011;23767;42.024;23.086;2023-03-31T03:25:43;4.97;;;1.95;;
37943;SDS011;23767;42.024;23.086;2023-03-31T03:28:10;6.57;;;2.42;;
37943;SDS011;23767;42.024;23.086;2023-03-31T03:30:36;5.53;;;2.35;;
37943;SDS011;23767;42.024;23.086;2023-03-31T03:33:02;5.07;;;2.22;;
37943;SDS011;23767;42.024;23.086;2023-03-31T03:35:30;3.67;;;1.90;;
37943;SDS011;23767;42.024;23.086;2023-03-31T03:37:56;6.05;;;2.30;;
37943;SDS011;23767;42.024;23.086;2023-03-31T03:40:22;5.13;;;2.45;;
37943;SDS011;23767;42.024;23.086;2023-03-31T03:42:48;6.82;;;2.55;;
37943;SDS011;23767;42.024;23.086;2023-03-31T03:45:14;7.18;;;2.38;;
37943;SDS011;23767;42.024;23.086;2023-03-31T03:47:40;4.63;;;2.50;;
37943;SDS011;23767;42.024;23.086;2023-03-31T03:50:07;5.45;;;2.30;;
37943;SDS011;23767;42.024;23.086;2023-03-31T03:52:33;5.75;;;2.55;;
37943;SDS011;23767;42.024;23.086;2023-03-31T03:54:59;8.13;;;2.78;;
37943;SDS011;23767;42.024;23.086;2023-03-31T03:57:26;8.82;;;3.90;;
37943;SDS011;23767;42.024;23.086;2023-03-31T03:59:52;8.82;;;3.78;;
37943;SDS011;23767;42.024;23.086;2023-03-31T04:02:18;5.82;;;2.95;;
37943;SDS011;23767;42.024;23.086;2023-03-31T04:04:44;6.57;;;3.00;;
37943;SDS011;23767;42.024;23.086;2023-03-31T04:07:10;7.53;;;3.60;;
37943;SDS011;23767;42.024;23.086;2023-03-31T04:09:36;8.63;;;3.13;;
37943;SDS011;23767;42.024;23.086;2023-03-31T04:12:02;10.50;;;3.25;;
37943;SDS011;23767;42.024;23.086;2023-03-31T04:14:28;7.78;;;3.58;;
37943;SDS011;23767;42.024;23.086;2023-03-31T04:16:54;6.97;;;3.80;;
37943;SDS011;23767;42.024;23.086;2023-03-31T04:19:22;5.60;;;3.15;;
37943;SDS011;23767;42.024;23.086;2023-03-31T04:21:50;6.22;;;3.50;;
37943;SDS011;23767;42.024;23.086;2023-03-31T04:24:23;7.13;;;3.50;;
37943;SDS011;23767;42.024;23.086;2023-03-31T04:26:55;7.47;;;3.25;;
37943;SDS011;23767;42.024;23.086;2023-03-31T04:29:22;6.07;;;3.00;;
37943;SDS011;23767;42.024;23.086;2023-03-31T04:31:50;8.27;;;2.85;;
37943;SDS011;23767;42.024;23.086;2023-03-31T04:34:17;6.80;;;3.05;;
37943;SDS011;23767;42.024;23.086;2023-03-31T04:36:46;5.90;;;2.83;;
37943;SDS011;23767;42.024;23.086;2023-03-31T04:39:13;7.60;;;3.95;;
37943;SDS011;23767;42.024;23.086;2023-03-31T04:41:39;6.57;;;3.72;;
37943;SDS011;23767;42.024;23.086;2023-03-31T04:44:05;8.27;;;4.47;;
37943;SDS011;23767;42.024;23.086;2023-03-31T04:46:32;8.32;;;4.47;;
37943;SDS011;23767;42.024;23.086;2023-03-31T04:48:58;6.85;;;4.35;;
37943;SDS011;23767;42.024;23.086;2023-03-31T04:51:25;8.48;;;4.25;;
37943;SDS011;23767;42.024;23.086;2023-03-31T04:53:52;8.50;;;3.95;;
37943;SDS011;23767;42.024;23.086;2023-03-31T04:56:18;6.65;;;3.58;;
37943;SDS011;23767;42.024;23.086;2023-03-31T04:58:44;8.23;;;3.33;;
37943;SDS011;23767;42.024;23.086;2023-03-31T05:01:10;6.63;;;2.83;;
37943;SDS011;23767;42.024;23.086;2023-03-31T05:03:42;6.20;;;2.97;;
37943;SDS011;23767;42.024;23.086;2023-03-31T05:06:08;6.03;;;3.25;;
37943;SDS011;23767;42.024;23.086;2023-03-31T05:08:35;6.97;;;3.40;;
37943;SDS011;23767;42.024;23.086;2023-03-31T05:11:02;5.63;;;3.10;;
37943;SDS011;23767;42.024;23.086;2023-03-31T05:13:28;7.22;;;3.08;;
37943;SDS011;23767;42.024;23.086;2023-03-31T05:15:54;5.20;;;2.20;;
37943;SDS011;23767;42.024;23.086;2023-03-31T05:18:20;6.50;;;2.78;;
37943;SDS011;23767;42.024;23.086;2023-03-31T05:20:46;6.63;;;3.63;;
37943;SDS011;23767;42.024;23.086;2023-03-31T05:23:12;7.72;;;4.50;;
37943;SDS011;23767;42.024;23.086;2023-03-31T05:25:38;8.00;;;5.20;;
37943;SDS011;23767;42.024;23.086;2023-03-31T05:28:06;7.47;;;4.80;;
37943;SDS011;23767;42.024;23.086;2023-03-31T05:30:33;9.57;;;5.20;;
37943;SDS011;23767;42.024;23.086;2023-03-31T05:33:00;8.05;;;5.30;;
37943;SDS011;23767;42.024;23.086;2023-03-31T05:35:26;12.65;;;5.53;;
37943;SDS011;23767;42.024;23.086;2023-03-31T05:37:53;13.35;;;6.40;;
37943;SDS011;23767;42.024;23.086;2023-03-31T05:40:19;17.05;;;5.47;;
37943;SDS011;23767;42.024;23.086;2023-03-31T05:42:46;9.35;;;5.38;;
37943;SDS011;23767;42.024;23.086;2023-03-31T05:45:11;13.27;;;5.70;;
37943;SDS011;23767;42.024;23.086;2023-03-31T05:47:38;9.27;;;5.38;;
37943;SDS011;23767;42.024;23.086;2023-03-31T05:50:04;9.85;;;6.18;;
37943;SDS011;23767;42.024;23.086;2023-03-31T05:52:32;9.95;;;6.00;;
37943;SDS011;23767;42.024;23.086;2023-03-31T05:54:58;11.80;;;5.28;;
37943;SDS011;23767;42.024;23.086;2023-03-31T05:57:24;7.10;;;4.05;;
37943;SDS011;23767;42.024;23.086;2023-03-31T05:59:50;11.10;;;5.18;;
37943;SDS011;23767;42.024;23.086;2023-03-31T06:02:17;10.63;;;4.70;;
37943;SDS011;23767;42.024;23.086;2023-03-31T06:04:43;8.20;;;3.60;;
37943;SDS011;23767;42.024;23.086;2023-03-31T06:07:09;10.63;;;3.60;;
37943;SDS011;23767;42.024;23.086;2023-03-31T06:09:35;8.27;;;3.00;;
37943;SDS011;23767;42.024;23.086;2023-03-31T06:12:01;6.50;;;3.10;;
37943;SDS011;23767;42.024;23.086;2023-03-31T06:14:27;8.32;;;3.30;;
37943;SDS011;23767;42.024;23.086;2023-03-31T06:16:53;10.57;;;3.78;;
37943;SDS011;23767;42.024;23.086;2023-03-31T06:19:19;15.82;;;5.93;;
37943;SDS011;23767;42.024;23.086;2023-03-31T06:21:45;11.00;;;5.18;;
37943;SDS011;23767;42.024;23.086;2023-03-31T06:24:11;12.70;;;5.05;;
37943;SDS011;23767;42.024;23.086;2023-03-31T06:26:37;12.25;;;4.93;;
37943;SDS011;23767;42.024;23.086;2023-03-31T06:29:03;8.77;;;4.30;;
37943;SDS011;23767;42.024;23.086;2023-03-31T06:31:29;10.30;;;4.72;;
37943;SDS011;23767;42.024;23.086;2023-03-31T06:33:56;12.35;;;4.65;;
37943;SDS011;23767;42.024;23.086;2023-03-31T06:36:22;6.53;;;3.47;;
37943;SDS011;23767;42.024;23.086;2023-03-31T06:38:48;11.90;;;3.97;;
37943;SDS011;23767;42.024;23.086;2023-03-31T06:41:15;11.82;;;3.80;;
37943;SDS011;23767;42.024;23.086;2023-03-31T06:43:41;11.55;;;3.85;;
37943;SDS011;23767;42.024;23.086;2023-03-31T06:46:07;16.65;;;4.60;;
37943;SDS011;23767;42.024;23.086;2023-03-31T06:48:33;12.15;;;4.50;;
37943;SDS011;23767;42.024;23.086;2023-03-31T06:51:00;11.45;;;4.80;;
37943;SDS011;23767;42.024;23.086;2023-03-31T06:53:27;21.75;;;11.68;;
37943;SDS011;23767;42.024;23.086;2023-03-31T06:55:53;11.00;;;5.72;;
37943;SDS011;23767;42.024;23.086;2023-03-31T06:58:19;11.00;;;4.88;;
37943;SDS011;23767;42.024;23.086;2023-03-31T07:00:45;12.45;;;5.15;;
37943;SDS011;23767;42.024;23.086;2023-03-31T07:03:11;11.68;;;5.13;;
37943;SDS011;23767;42.024;23.086;2023-03-31T07:05:38;11.43;;;5.40;;
37943;SDS011;23767;42.024;23.086;2023-03-31T07:08:04;13.75;;;5.30;;
37943;SDS011;23767;42.024;23.086;2023-03-31T07:10:30;8.98;;;4.07;;
37943;SDS011;23767;42.024;23.086;2023-03-31T07:12:57;7.53;;;4.18;;
37943;SDS011;23767;42.024;23.086;2023-03-31T07:15:23;10.35;;;4.40;;
37943;SDS011;23767;42.024;23.086;2023-03-31T07:17:50;10.65;;;3.95;;
37943;SDS011;23767;42.024;23.086;2023-03-31T07:20:25;16.25;;;4.70;;
37943;SDS011;23767;42.024;23.086;2023-03-31T07:22:51;9.98;;;3.88;;
37943;SDS011;23767;42.024;23.086;2023-03-31T07:25:18;14.88;;;5.32;;
37943;SDS011;23767;42.024;23.086;2023-03-31T07:27:44;9.32;;;4.32;;
37943;SDS011;23767;42.024;23.086;2023-03-31T07:30:12;15.02;;;4.65;;
37943;SDS011;23767;42.024;23.086;2023-03-31T07:32:38;10.68;;;4.00;;
37943;SDS011;23767;42.024;23.086;2023-03-31T07:35:08;9.15;;;3.65;;
37943;SDS011;23767;42.024;23.086;2023-03-31T07:37:39;9.20;;;3.85;;
37943;SDS011;23767;42.024;23.086;2023-03-31T07:40:06;5.47;;;3.30;;
37943;SDS011;23767;42.024;23.086;2023-03-31T07:42:33;6.18;;;3.20;;
37943;SDS011;23767;42.024;23.086;2023-03-31T07:44:59;8.38;;;3.38;;
37943;SDS011;23767;42.024;23.086;2023-03-31T07:47:25;10.63;;;3.60;;
37943;SDS011;23767;42.024;23.086;2023-03-31T07:49:52;14.77;;;4.10;;
37943;SDS011;23767;42.024;23.086;2023-03-31T07:52:18;10.85;;;3.47;;
37943;SDS011;23767;42.024;23.086;2023-03-31T07:54:44;7.90;;;3.58;;
37943;SDS011;23767;42.024;23.086;2023-03-31T07:57:11;7.03;;;3.00;;
37943;SDS011;23767;42.024;23.086;2023-03-31T07:59:38;6.68;;;2.97;;
37943;SDS011;23767;42.024;23.086;2023-03-31T08:02:04;6.53;;;3.00;;
37943;SDS011;23767;42.024;23.086;2023-03-31T08:04:30;7.22;;;2.40;;
37943;SDS011;23767;42.024;23.086;2023-03-31T08:06:56;6.43;;;2.85;;
37943;SDS011;23767;42.024;23.086;2023-03-31T08:09:22;6.45;;;3.08;;
37943;SDS011;23767;42.024;23.086;2023-03-31T08:11:48;6.38;;;2.70;;
37943;SDS011;23767;42.024;23.086;2023-03-31T08:14:14;5.00;;;2.45;;
37943;SDS011;23767;42.024;23.086;2023-03-31T08:16:41;7.65;;;2.65;;
37943;SDS011;23767;42.024;23.086;2023-03-31T08:19:07;6.60;;;2.85;;
37943;SDS011;23767;42.024;23.086;2023-03-31T08:21:33;8.25;;;3.20;;
37943;SDS011;23767;42.024;23.086;2023-03-31T08:23:59;7.25;;;2.83;;
37943;SDS011;23767;42.024;23.086;2023-03-31T08:26:25;9.63;;;3.28;;
37943;SDS011;23767;42.024;23.086;2023-03-31T08:28:51;6.68;;;2.88;;
37943;SDS011;23767;42.024;23.086;2023-03-31T08:31:18;4.68;;;1.83;;
37943;SDS011;23767;42.024;23.086;2023-03-31T08:33:45;4.80;;;2.20;;
37943;SDS011;23767;42.024;23.086;2023-03-31T08:36:11;5.53;;;2.25;;
37943;SDS011;23767;42.024;23.086;2023-03-31T08:38:38;9.80;;;2.60;;
37943;SDS011;23767;42.024;23.086;2023-03-31T08:43:41;7.40;;;2.10;;
37943;SDS011;23767;42.024;23.086;2023-03-31T08:46:09;4.30;;;1.98;;
37943;SDS011;23767;42.024;23.086;2023-03-31T08:48:47;5.15;;;2.20;;
37943;SDS011;23767;42.024;23.086;2023-03-31T08:51:19;8.75;;;2.60;;
37943;SDS011;23767;42.024;23.086;2023-03-31T08:53:53;5.82;;;2.22;;
37943;SDS011;23767;42.024;23.086;2023-03-31T08:56:21;7.90;;;2.50;;
37943;SDS011;23767;42.024;23.086;2023-03-31T08:58:48;5.82;;;2.60;;
37943;SDS011;23767;42.024;23.086;2023-03-31T09:15:03;7.93;;;3.10;;
37943;SDS011;23767;42.024;23.086;2023-03-31T09:17:43;7.53;;;2.35;;
37943;SDS011;23767;42.024;23.086;2023-03-31T09:20:14;7.10;;;2.08;;
37943;SDS011;23767;42.024;23.086;2023-03-31T09:22:44;8.50;;;2.42;;
37943;SDS011;23767;42.024;23.086;2023-03-31T09:25:27;5.28;;;2.40;;
37943;SDS011;23767;42.024;23.086;2023-03-31T09:27:56;7.55;;;2.55;;
37943;SDS011;23767;42.024;23.086;2023-03-31T09:30:25;8.05;;;3.53;;
37943;SDS011;23767;42.024;23.086;2023-03-31T09:32:52;5.35;;;2.22;;
37943;SDS011;23767;42.024;23.086;2023-03-31T09:35:24;5.72;;;2.20;;
37943;SDS011;23767;42.024;23.086;2023-03-31T09:37:51;4.47;;;2.13;;
37943;SDS011;23767;42.024;23.086;2023-03-31T09:40:18;6.80;;;2.20;;
37943;SDS011;23767;42.024;23.086;2023-03-31T09:42:45;5.53;;;2.00;;
37943;SDS011;23767;42.024;23.086;2023-03-31T09:45:17;6.28;;;2.13;;
37943;SDS011;23767;42.024;23.086;2023-03-31T09:47:53;7.45;;;2.22;;
37943;SDS011;23767;42.024;23.086;2023-03-31T09:50:22;9.00;;;2.20;;
37943;SDS011;23767;42.024;23.086;2023-03-31T09:52:49;8.45;;;2.33;;
37943;SDS011;23767;42.024;23.086;2023-03-31T09:58:01;5.60;;;2.00;;
37943;SDS011;23767;42.024;23.086;2023-03-31T10:00:31;8.43;;;2.30;;
37943;SDS011;23767;42.024;23.086;2023-03-31T10:03:02;4.13;;;1.98;;
37943;SDS011;23767;42.024;23.086;2023-03-31T10:05:32;6.68;;;2.25;;
37943;SDS011;23767;42.024;23.086;2023-03-31T10:10:36;5.82;;;2.22;;
37943;SDS011;23767;42.024;23.086;2023-03-31T10:13:06;5.63;;;2.03;;
37943;SDS011;23767;42.024;23.086;2023-03-31T10:15:33;4.85;;;2.10;;
37943;SDS011;23767;42.024;23.086;2023-03-31T10:18:02;6.63;;;2.20;;
37943;SDS011;23767;42.024;23.086;2023-03-31T10:20:32;8.18;;;2.10;;
37943;SDS011;23767;42.024;23.086;2023-03-31T10:23:05;5.55;;;2.08;;
37943;SDS011;23767;42.024;23.086;2023-03-31T10:25:40;5.28;;;1.75;;
37943;SDS011;23767;42.024;23.086;2023-03-31T10:28:09;5.25;;;1.83;;
37943;SDS011;23767;42.024;23.086;2023-03-31T10:30:37;7.05;;;1.98;;
37943;SDS011;23767;42.024;23.086;2023-03-31T10:33:08;5.00;;;1.58;;
37943;SDS011;23767;42.024;23.086;2023-03-31T10:35:36;7.60;;;2.55;;
37943;SDS011;23767;42.024;23.086;2023-03-31T10:38:06;6.20;;;2.10;;
37943;SDS011;23767;42.024;23.086;2023-03-31T10:40:35;6.20;;;2.08;;
37943;SDS011;23767;42.024;23.086;2023-03-31T10:43:11;5.07;;;1.67;;
37943;SDS011;23767;42.024;23.086;2023-03-31T10:45:43;6.85;;;1.85;;
37943;SDS011;23767;42.024;23.086;2023-03-31T10:48:22;9.48;;;2.15;;
37943;SDS011;23767;42.024;23.086;2023-03-31T10:50:49;6.28;;;2.15;;
37943;SDS011;23767;42.024;23.086;2023-03-31T10:53:15;6.05;;;1.90;;
37943;SDS011;23767;42.024;23.086;2023-03-31T11:01:41;5.75;;;1.80;;
37943;SDS011;23767;42.024;23.086;2023-03-31T11:08:48;4.10;;;1.67;;
37943;SDS011;23767;42.024;23.086;2023-03-31T11:11:20;3.72;;;1.60;;
37943;SDS011;23767;42.024;23.086;2023-03-31T11:24:17;5.70;;;1.52;;
37943;SDS011;23767;42.024;23.086;2023-03-31T11:37:35;4.40;;;1.50;;
37943;SDS011;23767;42.024;23.086;2023-03-31T11:45:43;8.15;;;1.80;;
37943;SDS011;23767;42.024;23.086;2023-03-31T11:48:17;4.82;;;1.80;;
37943;SDS011;23767;42.024;23.086;2023-03-31T11:50:47;4.78;;;1.60;;
37943;SDS011;23767;42.024;23.086;2023-03-31T11:53:17;7.38;;;2.08;;
37943;SDS011;23767;42.024;23.086;2023-03-31T11:55:45;7.03;;;1.92;;
37943;SDS011;23767;42.024;23.086;2023-03-31T11:58:13;6.28;;;1.92;;
37943;SDS011;23767;42.024;23.086;2023-03-31T12:00:44;5.00;;;1.50;;
37943;SDS011;23767;42.024;23.086;2023-03-31T12:05:40;5.60;;;1.60;;
37943;SDS011;23767;42.024;23.086;2023-03-31T12:08:08;5.60;;;1.75;;
37943;SDS011;23767;42.024;23.086;2023-03-31T12:10:38;8.02;;;2.00;;
37943;SDS011;23767;42.024;23.086;2023-03-31T12:13:13;5.32;;;1.80;;
37943;SDS011;23767;42.024;23.086;2023-03-31T12:15:43;7.68;;;1.58;;
37943;SDS011;23767;42.024;23.086;2023-03-31T12:18:17;4.47;;;1.63;;
37943;SDS011;23767;42.024;23.086;2023-03-31T12:23:49;4.97;;;1.55;;
37943;SDS011;23767;42.024;23.086;2023-03-31T12:26:30;6.57;;;2.08;;
37943;SDS011;23767;42.024;23.086;2023-03-31T12:31:47;4.63;;;1.70;;
37943;SDS011;23767;42.024;23.086;2023-03-31T12:34:15;6.32;;;1.83;;
37943;SDS011;23767;42.024;23.086;2023-03-31T12:36:49;5.78;;;1.85;;
37943;SDS011;23767;42.024;23.086;2023-03-31T12:55:00;4.18;;;1.70;;
37943;SDS011;23767;42.024;23.086;2023-03-31T12:57:30;4.45;;;1.90;;
37943;SDS011;23767;42.024;23.086;2023-03-31T13:00:12;7.28;;;2.20;;
37943;SDS011;23767;42.024;23.086;2023-03-31T13:02:41;5.25;;;1.67;;
37943;SDS011;23767;42.024;23.086;2023-03-31T13:07:52;5.68;;;1.75;;
37943;SDS011;23767;42.024;23.086;2023-03-31T13:10:26;5.68;;;1.85;;
37943;SDS011;23767;42.024;23.086;2023-03-31T13:12:57;5.50;;;1.65;;
37943;SDS011;23767;42.024;23.086;2023-03-31T13:15:24;3.40;;;1.38;;
37943;SDS011;23767;42.024;23.086;2023-03-31T13:17:59;6.80;;;1.80;;
37943;SDS011;23767;42.024;23.086;2023-03-31T13:20:30;5.60;;;1.80;;
37943;SDS011;23767;42.024;23.086;2023-03-31T13:23:39;3.78;;;1.73;;
37943;SDS011;23767;42.024;23.086;2023-03-31T13:28:14;7.15;;;1.83;;
37943;SDS011;23767;42.024;23.086;2023-03-31T13:33:06;5.13;;;1.90;;
37943;SDS011;23767;42.024;23.086;2023-03-31T13:35:37;5.35;;;2.00;;
37943;SDS011;23767;42.024;23.086;2023-03-31T13:40:50;4.50;;;1.83;;
37943;SDS011;23767;42.024;23.086;2023-03-31T13:46:00;4.80;;;1.88;;
37943;SDS011;23767;42.024;23.086;2023-03-31T13:48:37;8.48;;;2.20;;
37943;SDS011;23767;42.024;23.086;2023-03-31T13:56:58;7.05;;;2.50;;
37943;SDS011;23767;42.024;23.086;2023-03-31T14:06:45;7.63;;;1.70;;
37943;SDS011;23767;42.024;23.086;2023-03-31T14:09:16;7.18;;;1.75;;
37943;SDS011;23767;42.024;23.086;2023-03-31T14:11:44;5.40;;;1.85;;
37943;SDS011;23767;42.024;23.086;2023-03-31T14:16:37;4.47;;;1.83;;
37943;SDS011;23767;42.024;23.086;2023-03-31T14:21:39;6.45;;;2.70;;
37943;SDS011;23767;42.024;23.086;2023-03-31T14:29:22;5.20;;;2.17;;
37943;SDS011;23767;42.024;23.086;2023-03-31T14:34:25;7.43;;;3.30;;
37943;SDS011;23767;42.024;23.086;2023-03-31T14:39:22;6.03;;;2.10;;
37943;SDS011;23767;42.024;23.086;2023-03-31T14:41:50;7.40;;;2.08;;
37943;SDS011;23767;42.024;23.086;2023-03-31T14:44:17;6.78;;;2.13;;
37943;SDS011;23767;42.024;23.086;2023-03-31T14:46:43;4.75;;;1.70;;
37943;SDS011;23767;42.024;23.086;2023-03-31T14:51:46;6.50;;;2.50;;
37943;SDS011;23767;42.024;23.086;2023-03-31T14:54:16;5.97;;;2.10;;
37943;SDS011;23767;42.024;23.086;2023-03-31T14:56:42;5.13;;;2.03;;
37943;SDS011;23767;42.024;23.086;2023-03-31T14:59:12;6.07;;;1.60;;
37943;SDS011;23767;42.024;23.086;2023-03-31T15:01:42;5.82;;;1.90;;
37943;SDS011;23767;42.024;23.086;2023-03-31T15:04:12;6.18;;;1.65;;
37943;SDS011;23767;42.024;23.086;2023-03-31T15:06:40;4.47;;;1.55;;
37943;SDS011;23767;42.024;23.086;2023-03-31T15:09:08;5.38;;;2.13;;
37943;SDS011;23767;42.024;23.086;2023-03-31T15:11:37;5.10;;;1.70;;
37943;SDS011;23767;42.024;23.086;2023-03-31T15:14:03;9.25;;;2.30;;
37943;SDS011;23767;42.024;23.086;2023-03-31T15:18:57;5.32;;;2.17;;
37943;SDS011;23767;42.024;23.086;2023-03-31T15:21:24;7.28;;;2.58;;
37943;SDS011;23767;42.024;23.086;2023-03-31T15:23:53;7.72;;;2.63;;
37943;SDS011;23767;42.024;23.086;2023-03-31T15:26:20;8.52;;;2.15;;
37943;SDS011;23767;42.024;23.086;2023-03-31T15:28:51;5.93;;;2.03;;
37943;SDS011;23767;42.024;23.086;2023-03-31T15:31:19;6.15;;;1.90;;
37943;SDS011;23767;42.024;23.086;2023-03-31T15:33:45;7.25;;;1.58;;
37943;SDS011;23767;42.024;23.086;2023-03-31T15:36:11;7.40;;;1.88;;
37943;SDS011;23767;42.024;23.086;2023-03-31T15:38:38;5.80;;;1.90;;
37943;SDS011;23767;42.024;23.086;2023-03-31T15:41:10;7.10;;;1.90;;
37943;SDS011;23767;42.024;23.086;2023-03-31T15:46:47;6.53;;;2.10;;
37943;SDS011;23767;42.024;23.086;2023-03-31T15:49:21;5.35;;;1.70;;
37943;SDS011;23767;42.024;23.086;2023-03-31T15:51:47;5.07;;;2.00;;
37943;SDS011;23767;42.024;23.086;2023-03-31T15:56:50;6.85;;;2.92;;
37943;SDS011;23767;42.024;23.086;2023-03-31T15:59:24;7.03;;;1.95;;
37943;SDS011;23767;42.024;23.086;2023-03-31T16:01:51;3.80;;;1.92;;
37943;SDS011;23767;42.024;23.086;2023-03-31T16:04:18;6.18;;;2.00;;
37943;SDS011;23767;42.024;23.086;2023-03-31T16:06:58;7.00;;;2.10;;
37943;SDS011;23767;42.024;23.086;2023-03-31T16:12:09;4.45;;;1.70;;
37943;SDS011;23767;42.024;23.086;2023-03-31T16:14:38;5.65;;;2.30;;
37943;SDS011;23767;42.024;23.086;2023-03-31T16:17:10;7.63;;;1.80;;
37943;SDS011;23767;42.024;23.086;2023-03-31T16:19:40;6.78;;;2.13;;
37943;SDS011;23767;42.024;23.086;2023-03-31T16:22:10;5.00;;;2.25;;
37943;SDS011;23767;42.024;23.086;2023-03-31T16:24:38;5.57;;;1.98;;
37943;SDS011;23767;42.024;23.086;2023-03-31T16:27:04;4.43;;;1.70;;
37943;SDS011;23767;42.024;23.086;2023-03-31T16:29:33;6.85;;;2.42;;
37943;SDS011;23767;42.024;23.086;2023-03-31T16:37:22;10.88;;;3.63;;
37943;SDS011;23767;42.024;23.086;2023-03-31T16:39:49;7.60;;;2.97;;
37943;SDS011;23767;42.024;23.086;2023-03-31T16:42:15;8.13;;;2.35;;
37943;SDS011;23767;42.024;23.086;2023-03-31T16:44:41;6.82;;;2.80;;
37943;SDS011;23767;42.024;23.086;2023-03-31T16:47:08;6.32;;;2.15;;
37943;SDS011;23767;42.024;23.086;2023-03-31T16:49:34;9.95;;;2.58;;
37943;SDS011;23767;42.024;23.086;2023-03-31T16:52:00;6.72;;;2.15;;
37943;SDS011;23767;42.024;23.086;2023-03-31T16:54:26;11.70;;;5.28;;
37943;SDS011;23767;42.024;23.086;2023-03-31T16:56:53;15.65;;;8.85;;
37943;SDS011;23767;42.024;23.086;2023-03-31T16:59:18;10.10;;;5.57;;
37943;SDS011;23767;42.024;23.086;2023-03-31T17:01:45;11.65;;;3.67;;
37943;SDS011;23767;42.024;23.086;2023-03-31T17:04:11;8.75;;;2.22;;
37943;SDS011;23767;42.024;23.086;2023-03-31T17:06:37;8.55;;;3.28;;
37943;SDS011;23767;42.024;23.086;2023-03-31T17:09:03;12.88;;;4.15;;
37943;SDS011;23767;42.024;23.086;2023-03-31T17:11:29;11.38;;;5.15;;
37943;SDS011;23767;42.024;23.086;2023-03-31T17:13:56;10.55;;;6.15;;
37943;SDS011;23767;42.024;23.086;2023-03-31T17:16:24;7.80;;;4.35;;
37943;SDS011;23767;42.024;23.086;2023-03-31T17:18:50;6.88;;;2.47;;
37943;SDS011;23767;42.024;23.086;2023-03-31T17:21:17;6.50;;;2.30;;
37943;SDS011;23767;42.024;23.086;2023-03-31T17:23:43;10.77;;;3.38;;
37943;SDS011;23767;42.024;23.086;2023-03-31T17:26:10;7.13;;;2.58;;
37943;SDS011;23767;42.024;23.086;2023-03-31T17:28:36;6.93;;;2.40;;
37943;SDS011;23767;42.024;23.086;2023-03-31T17:31:23;4.63;;;2.03;;
37943;SDS011;23767;42.024;23.086;2023-03-31T17:33:49;6.45;;;2.22;;
37943;SDS011;23767;42.024;23.086;2023-03-31T17:36:15;6.47;;;2.42;;
37943;SDS011;23767;42.024;23.086;2023-03-31T17:38:41;4.80;;;2.10;;
37943;SDS011;23767;42.024;23.086;2023-03-31T17:41:08;4.13;;;1.88;;
37943;SDS011;23767;42.024;23.086;2023-03-31T17:43:35;6.80;;;2.38;;
37943;SDS011;23767;42.024;23.086;2023-03-31T17:46:02;6.18;;;2.28;;
37943;SDS011;23767;42.024;23.086;2023-03-31T17:48:30;8.38;;;2.22;;